createdAt,value
2018-08-20T00:00:30.845Z,101386.22
2018-08-20T00:03:02.874Z,101389.72
2018-08-20T00:05:35.468Z,101390.56
2018-08-20T00:08:06.398Z,101383.52
2018-08-20T00:10:36.053Z,101386.02
2018-08-20T00:13:05.551Z,101386.87
2018-08-20T00:15:35.341Z,101385.52
2018-08-20T00:18:05.842Z,101383.00
2018-08-20T00:20:35.589Z,101384.81
2018-08-20T00:23:05.469Z,101383.26
2018-08-20T00:25:36.713Z,101382.40
2018-08-20T00:28:06.495Z,101383.80
2018-08-20T00:30:36.381Z,101387.24
2018-08-20T00:33:05.994Z,101393.30
2018-08-20T00:35:35.984Z,101391.33
2018-08-20T00:38:07.399Z,101387.57
2018-08-20T00:40:36.933Z,101393.66
2018-08-20T00:43:06.499Z,101391.87
2018-08-20T00:45:36.492Z,101403.53
2018-08-20T00:48:06.170Z,101403.23
2018-08-20T00:50:37.809Z,101400.72
2018-08-20T00:53:07.284Z,101400.48
2018-08-20T00:55:36.780Z,101390.23
2018-08-20T00:58:06.567Z,101390.14
2018-08-20T01:00:35.712Z,101390.23
2018-08-20T01:03:05.965Z,101388.47
2018-08-20T01:05:36.743Z,101385.34
2018-08-20T01:08:05.916Z,101386.81
2018-08-20T01:10:35.662Z,101388.66
2018-08-20T01:13:04.892Z,101382.61
2018-08-20T01:15:37.217Z,101387.13
2018-08-20T01:18:07.685Z,101384.30
2018-08-20T01:20:37.158Z,101378.21
2018-08-20T01:23:06.473Z,101384.16
2018-08-20T01:25:36.661Z,101371.19
2018-08-20T01:28:06.720Z,101380.80
2018-08-20T01:30:36.625Z,101379.73
2018-08-20T01:33:11.128Z,101374.00
2018-08-20T01:35:40.366Z,101378.99
2018-08-20T01:38:09.533Z,101373.74
2018-08-20T01:40:38.863Z,101371.95
2018-08-20T01:43:08.374Z,101376.98
2018-08-20T01:45:38.123Z,101378.56
2018-08-20T01:48:07.859Z,101385.87
2018-08-20T01:50:37.550Z,101386.84
2018-08-20T01:53:07.120Z,101382.74
2018-08-20T01:55:37.490Z,101382.14
2018-08-20T01:58:07.252Z,101387.99
2018-08-20T02:00:39.078Z,101372.71
2018-08-20T02:03:09.013Z,101377.54
2018-08-20T02:05:38.419Z,101380.52
2018-08-20T02:08:07.976Z,101374.77
2018-08-20T02:10:37.531Z,101376.00
2018-08-20T02:13:06.724Z,101371.31
2018-08-20T02:15:36.660Z,101370.25
2018-08-20T02:20:46.884Z,101366.30
2018-08-20T02:23:16.519Z,101357.92
2018-08-20T02:25:47.275Z,101361.28
2018-08-20T02:28:17.333Z,101362.25
2018-08-20T02:30:47.005Z,101359.47
2018-08-20T02:33:16.695Z,101364.22
2018-08-20T02:35:47.293Z,101360.81
2018-08-20T02:40:56.238Z,101362.95
2018-08-20T02:43:25.668Z,101353.31
2018-08-20T02:45:56.458Z,101365.30
2018-08-20T02:48:25.668Z,101366.49
2018-08-20T02:50:56.652Z,101366.62
2018-08-20T02:53:31.948Z,101322.02
2018-08-20T02:56:01.648Z,101371.22
2018-08-20T02:58:34.045Z,101366.36
2018-08-20T03:01:04.305Z,101358.62
2018-08-20T03:03:36.522Z,101360.06
2018-08-20T03:06:10.858Z,101362.09
2018-08-20T03:08:40.283Z,101358.55
2018-08-20T03:11:10.895Z,101362.21
2018-08-20T03:13:40.683Z,101358.43
2018-08-20T03:16:10.716Z,101362.47
2018-08-20T03:18:40.739Z,101352.20
2018-08-20T03:21:11.289Z,101359.70
2018-08-20T03:23:42.269Z,101350.20
2018-08-20T03:26:15.486Z,101356.98
2018-08-20T03:28:45.547Z,101364.02
2018-08-20T03:31:16.383Z,101374.22
2018-08-20T03:33:48.195Z,101375.52
2018-08-20T03:36:20.500Z,101372.91
2018-08-20T03:38:50.430Z,101375.76
2018-08-20T03:41:19.847Z,101373.27
2018-08-20T03:43:50.140Z,101377.05
2018-08-20T03:46:19.947Z,101367.67
2018-08-20T03:48:49.448Z,101369.19
2018-08-20T03:51:19.441Z,101372.77
2018-08-20T03:53:49.151Z,101307.59
2018-08-20T03:56:18.858Z,101374.86
2018-08-20T03:58:49.496Z,101377.91
2018-08-20T04:01:20.640Z,101375.27
2018-08-20T04:03:50.487Z,101385.67
2018-08-20T04:06:24.934Z,101390.83
2018-08-20T04:08:54.623Z,101387.45
2018-08-20T04:11:24.706Z,101388.45
2018-08-20T04:13:54.902Z,101389.66
2018-08-20T04:16:25.532Z,101387.45
2018-08-20T04:18:59.577Z,101380.35
2018-08-20T04:21:29.422Z,101391.67
2018-08-20T04:23:58.890Z,101384.44
2018-08-20T04:26:28.723Z,101378.89
2018-08-20T04:28:58.589Z,101384.75
2018-08-20T04:31:37.090Z,101378.61
2018-08-20T04:34:06.446Z,101377.70
2018-08-20T04:36:38.443Z,101373.02
2018-08-20T04:39:10.109Z,101374.05
2018-08-20T04:41:40.708Z,101383.17
2018-08-20T04:44:11.631Z,101378.61
2018-08-20T04:46:42.482Z,101378.12
2018-08-20T04:49:11.950Z,101377.25
2018-08-20T04:51:42.070Z,101379.17
2018-08-20T04:54:11.963Z,101386.64
2018-08-20T04:56:41.360Z,101388.50
2018-08-20T04:59:12.078Z,101384.44
2018-08-20T05:01:42.709Z,101386.64
2018-08-20T05:04:12.233Z,101389.05
2018-08-20T05:06:42.261Z,101384.23
2018-08-20T05:09:13.188Z,101388.23
2018-08-20T05:11:46.622Z,101383.65
2018-08-20T05:14:17.033Z,101387.55
2018-08-20T05:16:46.554Z,101387.94
2018-08-20T05:19:18.001Z,101389.84
2018-08-20T05:21:48.278Z,101381.18
2018-08-20T05:24:17.907Z,101388.54
2018-08-20T05:26:48.342Z,101392.20
2018-08-20T05:29:37.221Z,101396.30
2018-08-20T05:32:13.329Z,101398.53
2018-08-20T05:34:43.014Z,101399.94
2018-08-20T05:37:13.819Z,101396.47
2018-08-20T05:39:43.415Z,101403.09
2018-08-20T05:42:13.368Z,101399.94
2018-08-20T05:44:43.261Z,101408.02
2018-08-20T05:47:13.141Z,101406.30
2018-08-20T05:49:42.592Z,101403.90
2018-08-20T05:52:12.397Z,101403.69
2018-08-20T05:54:44.661Z,101412.91
2018-08-20T05:57:14.296Z,101419.52
2018-08-20T05:59:44.212Z,101411.34
2018-08-20T06:02:16.342Z,101416.17
2018-08-20T06:04:47.529Z,101413.88
2018-08-20T06:07:18.505Z,101419.45
2018-08-20T06:09:49.794Z,101418.83
2018-08-20T06:12:21.286Z,101424.07
2018-08-20T06:14:52.489Z,101420.65
2018-08-20T06:17:23.750Z,101422.95
2018-08-20T06:19:54.283Z,101426.95
2018-08-20T06:22:24.283Z,101424.37
2018-08-20T06:27:45.439Z,101437.32
2018-08-20T06:30:21.874Z,101441.72
2018-08-20T06:32:55.586Z,101437.71
2018-08-20T06:35:32.519Z,101435.65
2018-08-20T06:38:08.291Z,101433.77
2018-08-20T06:43:30.352Z,101440.00
2018-08-20T06:46:02.262Z,101444.48
2018-08-20T06:48:33.674Z,101435.88
2018-08-20T06:51:02.969Z,101443.09
2018-08-20T06:53:36.213Z,101448.44
2018-08-20T06:56:13.866Z,101445.52
2018-08-20T06:58:47.715Z,101450.91
2018-08-20T07:04:28.384Z,101457.16
2018-08-20T07:07:04.065Z,101478.42
2018-08-20T07:09:37.549Z,101460.70
2018-08-20T07:12:08.392Z,101466.84
2018-08-20T07:14:47.782Z,101464.72
2018-08-20T07:17:19.977Z,101472.27
2018-08-20T07:19:51.600Z,101475.96
2018-08-20T07:22:22.679Z,101473.08
2018-08-20T07:24:54.526Z,101470.41
2018-08-20T07:27:33.560Z,101473.98
2018-08-20T07:32:52.830Z,101479.51
2018-08-20T07:35:24.285Z,101478.15
2018-08-20T07:37:53.958Z,101482.70
2018-08-20T07:40:26.894Z,101428.00
2018-08-20T07:42:58.280Z,101486.53
2018-08-20T07:45:34.479Z,101488.59
2018-08-20T07:48:19.775Z,101493.89
2018-08-20T07:51:04.952Z,101495.02
2018-08-20T07:53:38.698Z,101499.28
2018-08-20T07:56:09.769Z,101505.84
2018-08-20T07:58:40.863Z,101502.25
2018-08-20T08:01:16.069Z,101502.91
2018-08-20T08:06:33.594Z,101508.94
2018-08-20T08:09:09.537Z,101504.56
2018-08-20T08:11:42.158Z,101512.94
2018-08-20T08:14:14.982Z,101516.00
2018-08-20T08:16:45.867Z,101459.77
2018-08-20T08:19:19.534Z,101513.03
2018-08-20T08:21:50.954Z,101515.37
2018-08-20T08:24:20.160Z,101513.50
2018-08-20T08:26:50.681Z,101517.07
2018-08-20T08:29:21.689Z,101520.46
2018-08-20T08:31:52.501Z,101525.30
2018-08-20T08:34:25.121Z,101527.17
2018-08-20T08:36:54.712Z,101526.92
2018-08-20T08:41:46.783Z,101521.56
2018-08-20T08:44:17.153Z,101527.44
2018-08-20T08:46:48.410Z,101531.06
2018-08-20T08:49:18.450Z,101532.17
2018-08-20T08:51:48.027Z,101527.84
2018-08-20T08:54:18.340Z,101532.20
2018-08-20T08:56:51.301Z,101530.66
2018-08-20T08:59:21.952Z,101533.62
2018-08-20T09:01:52.216Z,101532.98
2018-08-20T09:04:23.354Z,101539.14
2018-08-20T09:06:53.633Z,101539.66
2018-08-20T09:09:24.007Z,101543.89
2018-08-20T09:11:55.423Z,101539.96
2018-08-20T09:14:28.942Z,101540.02
2018-08-20T09:17:01.368Z,101538.00
2018-08-20T09:19:33.622Z,101537.48
2018-08-20T09:22:03.305Z,101545.20
2018-08-20T09:24:35.461Z,101545.23
2018-08-20T09:27:05.095Z,101548.73
2018-08-20T09:29:34.552Z,101550.20
2018-08-20T09:32:06.521Z,101547.81
2018-08-20T09:34:36.228Z,101548.14
2018-08-20T09:37:06.084Z,101553.48
2018-08-20T09:39:38.794Z,101550.50
2018-08-20T09:42:10.256Z,101553.13
2018-08-20T09:44:40.207Z,101550.69
2018-08-20T09:47:14.638Z,101548.43
2018-08-20T09:49:47.890Z,101554.20
2018-08-20T09:52:22.149Z,101564.38
2018-08-20T09:54:52.670Z,101562.13
2018-08-20T09:57:30.516Z,101560.30
2018-08-20T10:03:08.441Z,101555.52
2018-08-20T10:05:39.554Z,101556.36
2018-08-20T10:08:14.742Z,101554.68
2018-08-20T10:11:03.662Z,101557.95
2018-08-20T10:13:34.527Z,101553.11
2018-08-20T10:16:04.548Z,101554.84
2018-08-20T10:18:50.262Z,101554.05
2018-08-20T10:21:19.709Z,101550.28
2018-08-20T10:23:49.999Z,101552.77
2018-08-20T10:26:27.450Z,101559.23
2018-08-20T10:29:13.195Z,101552.11
2018-08-20T10:31:42.784Z,101559.81
2018-08-20T10:34:12.762Z,101554.58
2018-08-20T10:36:48.134Z,101564.22
2018-08-20T10:39:17.701Z,101565.83
2018-08-20T10:44:21.378Z,101562.69
2018-08-20T10:46:51.564Z,101564.84
2018-08-20T10:49:22.494Z,101566.14
2018-08-20T10:51:52.877Z,101558.08
2018-08-20T10:54:22.407Z,101555.59
2018-08-20T10:56:51.671Z,101556.31
2018-08-20T10:59:22.191Z,101562.02
2018-08-20T11:01:51.852Z,101558.44
2018-08-20T11:04:23.851Z,101558.58
2018-08-20T11:06:54.401Z,101556.98
2018-08-20T11:09:23.696Z,101566.67
2018-08-20T11:11:54.063Z,101573.42
2018-08-20T11:14:23.533Z,101569.23
2018-08-20T11:16:53.683Z,101555.20
2018-08-20T11:19:33.962Z,101563.14
2018-08-20T11:22:05.449Z,101558.86
2018-08-20T11:24:35.296Z,101562.39
2018-08-20T11:27:07.188Z,101564.25
2018-08-20T11:29:40.690Z,101557.78
2018-08-20T11:32:10.163Z,101560.21
2018-08-20T11:34:40.404Z,101563.00
2018-08-20T11:37:10.601Z,101554.45
2018-08-20T11:39:42.087Z,101552.96
2018-08-20T11:42:11.474Z,101554.50
2018-08-20T11:44:42.839Z,101553.55
2018-08-20T11:47:13.590Z,101546.38
2018-08-20T11:49:43.114Z,101548.46
2018-08-20T11:52:12.895Z,101543.94
2018-08-20T11:54:43.367Z,101548.66
2018-08-20T11:57:15.343Z,101539.42
2018-08-20T11:59:49.525Z,101534.28
2018-08-20T12:02:21.611Z,101532.57
2018-08-20T12:04:51.973Z,101531.55
2018-08-20T12:07:27.681Z,101530.32
2018-08-20T12:10:02.495Z,101536.86
2018-08-20T12:12:43.056Z,101532.86
2018-08-20T12:15:17.993Z,101540.92
2018-08-20T12:17:50.932Z,101540.09
2018-08-20T12:20:21.166Z,101536.00
2018-08-20T12:22:52.039Z,101536.16
2018-08-20T12:25:22.510Z,101538.06
2018-08-20T12:27:55.432Z,101530.56
2018-08-20T12:30:26.653Z,101534.09
2018-08-20T12:32:57.345Z,101536.38
2018-08-20T12:35:28.029Z,101528.88
2018-08-20T12:37:58.996Z,101532.34
2018-08-20T12:40:29.341Z,101531.63
2018-08-20T12:43:09.760Z,101531.13
2018-08-20T12:45:40.699Z,101534.59
2018-08-20T12:48:15.949Z,101530.31
2018-08-20T12:50:46.177Z,101538.84
2018-08-20T12:53:16.219Z,101532.97
2018-08-20T12:55:48.107Z,101532.28
2018-08-20T12:58:19.558Z,101533.34
2018-08-20T13:04:17.127Z,101528.13
2018-08-20T13:06:51.737Z,101533.33
2018-08-20T13:09:24.950Z,101531.17
2018-08-20T13:11:58.603Z,101526.62
2018-08-20T13:14:40.737Z,101536.45
2018-08-20T13:17:12.506Z,101527.91
2018-08-20T13:19:49.494Z,101530.90
2018-08-20T13:22:29.727Z,101528.80
2018-08-20T13:25:01.885Z,101527.38
2018-08-20T13:27:32.441Z,101546.19
2018-08-20T13:30:05.997Z,101538.81
2018-08-20T13:32:37.818Z,101539.54
2018-08-20T13:35:10.257Z,101533.73
2018-08-20T13:37:41.198Z,101538.75
2018-08-20T13:40:10.925Z,101537.54
2018-08-20T13:42:40.704Z,101535.53
2018-08-20T13:45:16.388Z,101531.53
2018-08-20T13:47:46.966Z,101533.20
2018-08-20T13:50:18.887Z,101535.40
2018-08-20T13:52:49.274Z,101533.77
2018-08-20T13:55:24.129Z,101529.56
2018-08-20T13:57:55.735Z,101531.41
2018-08-20T14:00:26.882Z,101527.31
2018-08-20T14:02:56.756Z,101531.33
2018-08-20T14:05:26.980Z,101524.72
2018-08-20T14:07:58.101Z,101535.57
2018-08-20T14:10:28.930Z,101490.53
2018-08-20T14:12:59.312Z,101528.81
2018-08-20T14:15:30.492Z,101534.20
2018-08-20T14:18:08.170Z,101532.70
2018-08-20T14:20:40.976Z,101536.14
2018-08-20T14:23:11.261Z,101536.55
2018-08-20T14:25:41.196Z,101531.55
2018-08-20T14:28:14.602Z,101529.14
2018-08-20T14:30:46.011Z,101534.53
2018-08-20T14:33:16.597Z,101532.44
2018-08-20T14:35:48.883Z,101532.44
2018-08-20T14:38:20.409Z,101537.37
2018-08-20T14:40:54.378Z,101537.30
2018-08-20T14:43:24.460Z,101531.34
2018-08-20T14:46:00.550Z,101532.42
2018-08-20T14:48:38.478Z,101533.88
2018-08-20T14:51:08.211Z,101538.47
2018-08-20T14:53:37.610Z,101536.45
2018-08-20T14:56:08.294Z,101537.45
2018-08-20T14:58:42.005Z,101495.55
2018-08-20T15:01:11.832Z,101529.13
2018-08-20T15:03:44.204Z,101528.84
2018-08-20T15:06:14.723Z,101531.39
2018-08-20T15:08:44.184Z,101535.48
2018-08-20T15:11:15.739Z,101533.59
2018-08-20T15:13:47.017Z,101533.39
2018-08-20T15:16:19.759Z,101530.81
2018-08-20T15:18:50.903Z,101529.27
2018-08-20T15:21:20.677Z,101528.97
2018-08-20T15:23:50.467Z,101524.80
2018-08-20T15:26:21.904Z,101526.76
2018-08-20T15:28:52.899Z,101529.97
2018-08-20T15:31:25.263Z,101529.53
2018-08-20T15:34:00.249Z,101521.05
2018-08-20T15:36:30.011Z,101237.72
2018-08-20T15:39:02.850Z,101523.17
2018-08-20T15:41:34.579Z,101518.88
2018-08-20T15:44:29.414Z,101527.14
2018-08-20T15:47:00.904Z,101521.79
2018-08-20T15:49:33.552Z,101523.75
2018-08-20T15:52:04.504Z,101521.08
2018-08-20T15:54:35.521Z,101517.98
2018-08-20T15:57:07.620Z,101519.46
2018-08-20T15:59:42.813Z,101526.09
2018-08-20T16:02:15.249Z,101521.23
2018-08-20T16:04:51.706Z,101521.23
2018-08-20T16:07:34.582Z,101517.48
2018-08-20T16:10:04.778Z,101523.69
2018-08-20T16:12:35.153Z,101519.41
2018-08-20T16:17:52.717Z,101518.19
2018-08-20T16:23:18.417Z,101507.44
2018-08-20T16:25:52.041Z,101512.62
2018-08-20T16:28:25.740Z,101508.70
2018-08-20T16:31:44.311Z,101503.97
2018-08-20T16:34:20.258Z,101503.89
2018-08-20T16:36:56.566Z,101502.87
2018-08-20T16:39:27.688Z,101501.95
2018-08-20T16:41:58.128Z,101500.06
2018-08-20T16:44:34.154Z,101502.58
2018-08-20T16:47:18.396Z,101500.91
2018-08-20T16:49:52.676Z,101501.81
2018-08-20T16:52:25.345Z,101498.74
2018-08-20T16:55:20.639Z,101501.42
2018-08-20T16:58:00.867Z,101500.80
2018-08-20T17:00:36.340Z,101499.09
2018-08-20T17:03:14.070Z,101500.45
2018-08-20T17:05:52.830Z,101231.77
2018-08-20T17:08:36.271Z,101501.19
2018-08-20T17:11:06.585Z,101497.16
2018-08-20T17:13:45.744Z,101494.78
2018-08-20T17:16:28.238Z,101498.88
2018-08-20T17:19:14.372Z,101492.61
2018-08-20T17:24:29.403Z,101501.32
2018-08-20T17:27:02.838Z,101493.71
2018-08-20T17:29:40.424Z,101498.86
2018-08-20T17:32:16.037Z,101506.84
2018-08-20T17:34:48.450Z,101501.48
2018-08-20T17:37:20.508Z,101492.05
2018-08-20T17:40:05.390Z,101500.61
2018-08-20T17:42:38.033Z,101506.94
2018-08-20T17:45:14.086Z,101507.05
2018-08-20T17:47:49.724Z,101507.56
2018-08-20T17:50:30.760Z,101495.51
2018-08-20T17:53:13.881Z,101496.23
2018-08-20T17:55:45.510Z,101501.99
2018-08-20T17:58:17.551Z,101503.47
2018-08-20T18:00:54.858Z,101496.22
2018-08-20T18:03:31.410Z,101499.85
2018-08-20T18:06:07.668Z,101505.78
2018-08-20T18:08:39.150Z,101501.28
2018-08-20T18:11:11.649Z,101504.78
2018-08-20T18:13:53.662Z,101500.56
2018-08-20T18:16:29.036Z,101502.84
2018-08-20T18:19:04.745Z,101506.86
2018-08-20T18:21:38.693Z,101509.66
2018-08-20T18:24:13.564Z,101514.79
2018-08-20T18:26:55.728Z,101518.16
2018-08-20T18:29:25.675Z,101517.30
2018-08-20T18:32:00.028Z,101525.70
2018-08-20T18:34:30.243Z,101525.09
2018-08-20T18:37:12.538Z,101526.22
2018-08-20T18:39:52.079Z,101528.87
2018-08-20T18:42:22.552Z,101531.28
2018-08-20T18:44:53.238Z,101536.33
2018-08-20T18:47:23.737Z,101532.13
2018-08-20T18:50:08.640Z,101540.70
2018-08-20T18:52:41.254Z,101537.06
2018-08-20T18:55:17.569Z,101535.82
2018-08-20T18:57:49.047Z,101543.36
2018-08-20T19:00:21.716Z,101543.88
2018-08-20T19:03:01.518Z,101538.22
2018-08-20T19:05:43.242Z,101549.13
2018-08-20T19:08:26.690Z,101549.97
2018-08-20T19:11:01.091Z,101557.75
2018-08-20T19:13:34.868Z,101554.27
2018-08-20T19:17:13.927Z,101551.66
2018-08-20T19:19:50.136Z,101553.55
2018-08-20T19:22:30.096Z,101553.66
2018-08-20T19:25:05.528Z,101554.50
2018-08-20T19:27:36.359Z,101551.45
2018-08-20T19:36:00.493Z,101550.20
2018-08-20T19:38:31.293Z,101556.91
2018-08-20T19:41:14.460Z,101554.18
2018-08-20T19:43:48.645Z,101548.44
2018-08-20T19:46:29.418Z,101549.69
2018-08-20T19:49:09.967Z,101551.98
2018-08-20T19:51:41.146Z,101555.34
2018-08-20T19:54:14.021Z,101554.06
2018-08-20T19:56:54.448Z,101554.50
2018-08-20T19:59:33.008Z,101553.14
2018-08-20T20:02:06.894Z,101552.62
2018-08-20T20:04:37.340Z,101561.84
2018-08-20T20:07:09.134Z,101561.40
2018-08-20T20:09:40.758Z,101556.38
2018-08-20T20:12:11.840Z,101562.36
2018-08-20T20:14:46.247Z,101562.15
2018-08-20T20:17:19.336Z,101565.72
2018-08-20T20:19:51.543Z,101567.72
2018-08-20T20:22:22.230Z,101569.17
2018-08-20T20:24:53.905Z,101570.97
2018-08-20T20:27:25.927Z,101571.58
2018-08-20T20:29:57.354Z,101568.53
2018-08-20T20:32:29.243Z,101573.27
2018-08-20T20:35:00.783Z,101567.49
2018-08-20T20:37:30.161Z,101569.29
2018-08-20T20:40:13.460Z,101571.27
2018-08-20T20:42:48.043Z,101574.83
2018-08-20T20:45:19.631Z,101575.58
2018-08-20T20:47:51.068Z,101580.39
2018-08-20T20:52:56.515Z,101578.31
2018-08-20T20:55:27.364Z,101574.30
2018-08-20T20:58:01.870Z,101578.31
2018-08-20T21:00:32.175Z,101575.27
2018-08-20T21:05:44.220Z,101586.48
2018-08-20T21:08:14.692Z,101580.59
2018-08-20T21:10:51.286Z,101587.09
2018-08-20T21:13:23.272Z,101585.73
2018-08-20T21:15:59.344Z,101593.30
2018-08-20T21:18:30.472Z,101594.66
2018-08-20T21:21:02.675Z,101586.25
2018-08-20T21:23:41.331Z,101590.56
2018-08-20T21:29:12.820Z,101591.92
2018-08-20T21:31:53.573Z,101596.12
2018-08-20T21:34:32.852Z,101593.91
2018-08-20T21:37:06.454Z,101595.40
2018-08-20T21:39:41.073Z,101602.50
2018-08-20T21:42:15.437Z,101599.77
2018-08-20T21:44:59.115Z,101595.08
2018-08-20T21:47:35.867Z,101593.88
2018-08-20T21:50:06.205Z,101597.13
2018-08-20T21:52:36.655Z,101604.66
2018-08-20T21:55:07.612Z,101596.92
2018-08-20T21:57:45.193Z,101602.14
2018-08-20T22:03:02.903Z,101604.25
2018-08-20T22:05:34.618Z,101602.36
2018-08-20T22:08:09.559Z,101602.80
2018-08-20T22:10:39.761Z,101603.73
2018-08-20T22:13:09.978Z,101614.29
2018-08-20T22:15:58.068Z,101607.30
2018-08-20T22:18:31.548Z,101607.39
2018-08-20T22:21:01.456Z,101606.55
2018-08-20T22:23:39.085Z,101608.23
2018-08-20T22:26:00.470Z,101604.98
2018-08-20T22:28:30.398Z,101607.39
2018-08-20T22:31:01.347Z,101610.11
2018-08-20T22:33:34.688Z,101601.27
2018-08-20T22:36:04.525Z,101607.24
2018-08-20T22:39:05.366Z,101597.72
2018-08-20T22:41:36.103Z,101599.33
2018-08-20T22:44:06.680Z,101596.60
2018-08-20T22:46:37.173Z,101600.36
2018-08-20T22:49:06.563Z,101599.87
2018-08-20T22:51:37.980Z,101591.69
2018-08-20T22:54:11.702Z,101600.06
2018-08-20T22:56:43.332Z,101597.42
2018-08-20T22:59:15.061Z,101601.70
2018-08-20T23:01:44.960Z,101600.20
2018-08-20T23:04:17.467Z,101607.13
2018-08-20T23:07:01.631Z,101605.95
2018-08-20T23:09:57.799Z,101609.20
2018-08-20T23:12:47.041Z,101611.31
2018-08-20T23:15:33.104Z,101611.27
2018-08-20T23:18:02.944Z,101621.59
2018-08-20T23:20:33.120Z,101576.27
2018-08-20T23:23:02.841Z,101620.69
2018-08-20T23:25:37.366Z,101627.34
2018-08-20T23:28:07.582Z,101621.07
2018-08-20T23:30:37.541Z,101621.62
2018-08-20T23:33:08.471Z,101622.70
2018-08-20T23:35:40.637Z,101614.67
2018-08-20T23:38:11.376Z,101616.23
2018-08-20T23:40:43.084Z,101496.00
2018-08-20T23:43:15.605Z,101612.72
2018-08-20T23:45:45.152Z,101617.31
2018-08-20T23:48:16.067Z,101615.95
2018-08-20T23:50:56.722Z,101619.19
2018-08-20T23:53:26.936Z,101613.73
2018-08-20T23:55:56.636Z,101615.91
2018-08-20T23:58:26.134Z,101618.62
